createdAt,value
2018-10-07T00:00:56.769Z,17.90
2018-10-07T00:03:25.571Z,17.90
2018-10-07T00:05:54.449Z,17.70
2018-10-07T00:08:23.396Z,17.70
2018-10-07T00:10:52.285Z,17.70
2018-10-07T00:13:21.314Z,17.70
2018-10-07T00:15:50.133Z,17.80
2018-10-07T00:18:18.995Z,17.80
2018-10-07T00:20:47.851Z,17.80
2018-10-07T00:23:16.715Z,17.70
2018-10-07T00:25:45.522Z,17.70
2018-10-07T00:28:14.380Z,17.60
2018-10-07T00:30:43.269Z,17.60
2018-10-07T00:33:12.137Z,17.50
2018-10-07T00:35:40.940Z,17.50
2018-10-07T00:38:09.917Z,17.50
2018-10-07T00:40:38.691Z,17.50
2018-10-07T00:43:07.638Z,17.40
2018-10-07T00:45:36.360Z,17.30
2018-10-07T00:48:05.399Z,17.40
2018-10-07T00:50:34.286Z,17.40
2018-10-07T00:53:03.176Z,17.50
2018-10-07T00:55:32.045Z,17.50
2018-10-07T00:58:00.857Z,17.50
2018-10-07T01:00:29.653Z,17.50
2018-10-07T01:02:58.476Z,17.60
2018-10-07T01:05:27.333Z,17.50
2018-10-07T01:07:56.234Z,17.50
2018-10-07T01:10:25.126Z,17.40
2018-10-07T01:12:53.992Z,17.30
2018-10-07T01:15:22.704Z,17.40
2018-10-07T01:17:51.455Z,17.40
2018-10-07T01:20:20.367Z,17.40
2018-10-07T01:22:49.181Z,17.30
2018-10-07T01:25:18.058Z,17.20
2018-10-07T01:27:46.849Z,17.10
2018-10-07T01:30:15.994Z,17.10
2018-10-07T01:32:44.740Z,17.10
2018-10-07T01:35:13.528Z,17.20
2018-10-07T01:37:42.326Z,17.20
2018-10-07T01:40:11.295Z,17.20
2018-10-07T01:42:40.060Z,17.20
2018-10-07T01:45:09.114Z,17.20
2018-10-07T01:47:38.123Z,17.20
2018-10-07T01:50:07.418Z,17.20
2018-10-07T01:52:36.438Z,17.20
2018-10-07T01:55:05.545Z,17.30
2018-10-07T01:57:34.509Z,17.20
2018-10-07T02:00:03.519Z,17.20
2018-10-07T02:02:32.358Z,17.20
2018-10-07T02:05:02.683Z,17.30
2018-10-07T02:07:31.523Z,17.20
2018-10-07T02:10:00.372Z,17.20
2018-10-07T02:15:32.484Z,17.20
2018-10-07T02:18:01.419Z,17.20
2018-10-07T02:20:30.327Z,17.20
2018-10-07T02:22:59.262Z,17.30
2018-10-07T02:25:28.172Z,17.30
2018-10-07T02:27:57.202Z,17.30
2018-10-07T02:30:26.161Z,17.30
2018-10-07T02:32:55.334Z,17.40
2018-10-07T02:35:24.222Z,17.30
2018-10-07T02:37:53.089Z,17.30
2018-10-07T02:40:21.956Z,17.20
2018-10-07T02:42:50.805Z,17.20
2018-10-07T02:45:19.680Z,17.20
2018-10-07T02:47:48.522Z,17.20
2018-10-07T02:50:20.637Z,17.20
2018-10-07T02:52:54.165Z,17.30
2018-10-07T02:55:26.723Z,17.30
2018-10-07T02:57:56.635Z,17.30
2018-10-07T03:00:25.966Z,17.30
2018-10-07T03:02:54.757Z,17.30
2018-10-07T03:05:37.394Z,17.20
2018-10-07T03:08:06.400Z,17.20
2018-10-07T03:10:35.204Z,17.10
2018-10-07T03:13:04.388Z,17.10
2018-10-07T03:15:33.330Z,17.00
2018-10-07T03:18:02.157Z,17.00
2018-10-07T03:20:31.099Z,17.00
2018-10-07T03:23:00.004Z,16.90
2018-10-07T03:25:28.780Z,17.00
2018-10-07T03:27:57.588Z,17.00
2018-10-07T03:30:26.364Z,17.00
2018-10-07T03:32:55.801Z,17.10
2018-10-07T03:35:24.676Z,17.10
2018-10-07T03:37:54.120Z,17.10
2018-10-07T03:40:22.976Z,17.20
2018-10-07T03:42:51.756Z,17.10
2018-10-07T03:45:20.551Z,17.10
2018-10-07T03:47:49.413Z,17.00
2018-10-07T03:50:18.268Z,17.00
2018-10-07T03:52:47.316Z,17.00
2018-10-07T03:55:16.110Z,17.00
2018-10-07T03:57:44.980Z,16.90
2018-10-07T04:00:13.821Z,17.00
2018-10-07T04:02:42.970Z,17.00
2018-10-07T04:05:11.830Z,16.90
2018-10-07T04:07:40.601Z,16.80
2018-10-07T04:10:09.897Z,16.90
2018-10-07T04:12:39.438Z,16.90
2018-10-07T04:15:08.489Z,16.80
2018-10-07T04:17:37.343Z,16.80
2018-10-07T04:20:06.440Z,16.80
2018-10-07T04:22:35.206Z,16.90
2018-10-07T04:25:04.168Z,17.00
2018-10-07T04:27:33.032Z,17.00
2018-10-07T04:30:01.774Z,16.90
2018-10-07T04:32:30.689Z,16.90
2018-10-07T04:34:59.549Z,16.90
2018-10-07T04:37:28.311Z,16.90
2018-10-07T04:39:57.205Z,16.90
2018-10-07T04:42:25.917Z,16.90
2018-10-07T04:44:54.734Z,17.00
2018-10-07T04:47:23.501Z,16.90
2018-10-07T04:49:52.929Z,16.90
2018-10-07T04:52:21.888Z,17.00
2018-10-07T04:54:50.792Z,17.10
2018-10-07T04:57:19.601Z,17.10
2018-10-07T04:59:48.371Z,17.00
2018-10-07T05:02:17.197Z,17.00
2018-10-07T05:04:45.996Z,17.00
2018-10-07T05:07:14.935Z,17.00
2018-10-07T05:09:43.857Z,17.00
2018-10-07T05:12:13.012Z,17.10
2018-10-07T05:14:41.976Z,17.10
2018-10-07T05:17:11.864Z,17.00
2018-10-07T05:19:40.755Z,17.10
2018-10-07T05:22:11.046Z,17.10
2018-10-07T05:24:39.936Z,17.10
2018-10-07T05:27:08.900Z,17.10
2018-10-07T05:29:37.676Z,17.10
2018-10-07T05:32:07.372Z,17.00
2018-10-07T05:34:36.284Z,17.00
2018-10-07T05:37:05.304Z,16.90
2018-10-07T05:39:35.232Z,17.00
2018-10-07T05:42:04.140Z,17.00
2018-10-07T05:44:33.200Z,17.10
2018-10-07T05:47:02.624Z,17.10
2018-10-07T05:49:31.364Z,17.10
2018-10-07T05:52:00.160Z,17.10
2018-10-07T05:54:29.041Z,16.90
2018-10-07T05:56:57.878Z,17.00
2018-10-07T05:59:27.218Z,17.00
2018-10-07T06:01:56.993Z,16.90
2018-10-07T06:04:36.008Z,17.00
2018-10-07T06:07:05.420Z,17.00
2018-10-07T06:09:34.842Z,17.10
2018-10-07T06:12:05.159Z,17.00
2018-10-07T06:14:44.996Z,17.00
2018-10-07T06:17:13.878Z,17.00
2018-10-07T06:19:43.001Z,17.00
2018-10-07T06:22:11.827Z,17.10
2018-10-07T06:24:41.018Z,17.20
2018-10-07T06:27:09.933Z,17.20
2018-10-07T06:29:38.838Z,17.20
2018-10-07T06:32:07.718Z,17.10
2018-10-07T06:34:36.564Z,17.10
2018-10-07T06:37:05.421Z,17.10
2018-10-07T06:39:34.308Z,17.20
2018-10-07T06:42:03.226Z,17.30
2018-10-07T06:44:32.121Z,17.20
2018-10-07T06:47:01.195Z,17.20
2018-10-07T06:49:30.052Z,17.20
2018-10-07T06:51:58.931Z,17.20
2018-10-07T06:54:28.005Z,17.30
2018-10-07T06:56:57.057Z,17.40
2018-10-07T06:59:26.122Z,17.40
2018-10-07T07:01:55.318Z,17.50
2018-10-07T07:04:24.493Z,17.50
2018-10-07T07:06:53.585Z,17.40
2018-10-07T07:09:22.585Z,17.70
2018-10-07T07:11:51.516Z,17.80
2018-10-07T07:14:20.631Z,17.70
2018-10-07T07:16:49.446Z,17.70
2018-10-07T07:19:18.498Z,17.70
2018-10-07T07:21:47.617Z,17.60
2018-10-07T07:24:16.744Z,17.70
2018-10-07T07:26:45.602Z,17.70
2018-10-07T07:29:14.523Z,17.80
2018-10-07T07:31:43.746Z,17.80
2018-10-07T07:34:12.618Z,17.90
2018-10-07T07:36:41.836Z,18.00
2018-10-07T07:39:10.657Z,18.10
2018-10-07T07:41:40.063Z,18.10
2018-10-07T07:44:09.277Z,18.20
2018-10-07T07:46:38.228Z,18.30
2018-10-07T07:49:07.309Z,18.40
2018-10-07T07:51:36.085Z,18.30
2018-10-07T07:54:06.233Z,18.50
2018-10-07T07:56:35.091Z,18.60
2018-10-07T07:59:04.922Z,18.70
2018-10-07T08:01:34.244Z,18.70
2018-10-07T08:04:03.164Z,18.80
2018-10-07T08:06:31.949Z,18.80
2018-10-07T08:09:00.760Z,18.90
2018-10-07T08:11:29.664Z,19.00
2018-10-07T08:13:58.580Z,19.00
2018-10-07T08:16:27.695Z,19.00
2018-10-07T08:18:56.548Z,19.20
2018-10-07T08:21:25.935Z,19.30
2018-10-07T08:23:54.999Z,19.30
2018-10-07T08:26:23.995Z,19.40
2018-10-07T08:28:53.757Z,19.40
2018-10-07T08:31:23.040Z,19.40
2018-10-07T08:33:52.025Z,19.40
2018-10-07T08:36:21.093Z,19.40
2018-10-07T08:38:50.003Z,19.40
2018-10-07T08:41:18.786Z,19.40
2018-10-07T08:43:47.988Z,19.50
2018-10-07T08:46:17.074Z,19.40
2018-10-07T08:48:45.921Z,19.40
2018-10-07T08:51:14.902Z,19.40
2018-10-07T08:53:43.704Z,19.40
2018-10-07T08:56:13.588Z,19.40
2018-10-07T08:58:42.336Z,19.40
2018-10-07T09:01:11.289Z,19.40
2018-10-07T09:03:40.215Z,19.40
2018-10-07T09:06:09.090Z,19.40
2018-10-07T09:08:37.893Z,19.40
2018-10-07T09:11:06.853Z,19.40
2018-10-07T09:13:35.784Z,19.50
2018-10-07T09:16:05.479Z,19.50
2018-10-07T09:18:35.041Z,19.50
2018-10-07T09:21:04.315Z,19.50
2018-10-07T09:23:33.312Z,19.70
2018-10-07T09:26:02.838Z,19.80
2018-10-07T09:28:31.745Z,19.80
2018-10-07T09:31:00.525Z,20.00
2018-10-07T09:33:29.814Z,20.00
2018-10-07T09:35:59.187Z,20.20
2018-10-07T09:38:28.098Z,20.20
2018-10-07T09:40:56.833Z,20.30
2018-10-07T09:43:25.721Z,20.30
2018-10-07T09:45:54.733Z,20.40
2018-10-07T09:48:23.621Z,20.40
2018-10-07T09:50:52.601Z,20.40
2018-10-07T09:53:21.544Z,20.50
2018-10-07T09:55:50.390Z,20.60
2018-10-07T09:58:19.220Z,20.60
2018-10-07T10:00:48.098Z,20.70
2018-10-07T10:03:16.908Z,20.70
2018-10-07T10:05:45.968Z,20.80
2018-10-07T10:08:14.921Z,20.80
2018-10-07T10:10:43.989Z,20.90
2018-10-07T10:13:12.829Z,21.00
2018-10-07T10:15:41.807Z,21.10
2018-10-07T10:18:15.914Z,21.20
2018-10-07T10:20:55.537Z,21.30
2018-10-07T10:25:34.479Z,21.30
2018-10-07T10:28:17.399Z,21.30
2018-10-07T10:31:03.915Z,21.30
2018-10-07T10:33:34.977Z,21.30
2018-10-07T10:36:12.741Z,21.40
2018-10-07T10:38:49.813Z,21.40
2018-10-07T10:41:24.876Z,21.50
2018-10-07T10:44:03.565Z,21.60
2018-10-07T10:46:36.789Z,21.80
2018-10-07T10:49:11.287Z,21.80
2018-10-07T10:51:51.538Z,22.00
2018-10-07T10:54:29.265Z,22.00
2018-10-07T10:57:03.054Z,22.00
2018-10-07T11:00:39.438Z,22.10
2018-10-07T11:03:17.638Z,22.20
2018-10-07T11:05:50.584Z,22.30
2018-10-07T11:08:33.235Z,22.30
2018-10-07T11:11:10.635Z,22.40
2018-10-07T11:13:55.561Z,22.30
2018-10-07T11:16:31.903Z,22.40
2018-10-07T11:19:02.821Z,22.40
2018-10-07T11:22:44.052Z,22.40
2018-10-07T11:26:27.669Z,22.40
2018-10-07T11:29:07.220Z,22.50
2018-10-07T11:33:51.198Z,22.50
2018-10-07T11:37:29.101Z,22.70
2018-10-07T11:40:08.279Z,22.60
2018-10-07T11:42:43.321Z,22.40
2018-10-07T11:45:17.112Z,22.50
2018-10-07T11:48:06.756Z,22.70
2018-10-07T11:51:19.697Z,22.90
2018-10-07T11:53:55.548Z,22.90
2018-10-07T11:56:24.596Z,22.90
2018-10-07T11:58:54.009Z,23.00
2018-10-07T12:01:22.968Z,23.10
2018-10-07T12:03:51.860Z,23.00
2018-10-07T12:06:20.921Z,23.10
2018-10-07T12:08:49.771Z,23.00
2018-10-07T12:11:18.625Z,23.00
2018-10-07T12:13:47.667Z,22.90
2018-10-07T12:16:16.680Z,22.60
2018-10-07T12:18:45.561Z,22.60
2018-10-07T12:21:14.718Z,22.70
2018-10-07T12:23:43.526Z,22.70
2018-10-07T12:26:12.362Z,22.50
2018-10-07T12:28:41.257Z,22.30
2018-10-07T12:31:10.226Z,22.10
2018-10-07T12:33:39.185Z,21.90
2018-10-07T12:36:08.783Z,21.70
2018-10-07T12:38:37.733Z,21.80
2018-10-07T12:41:06.986Z,21.70
2018-10-07T12:43:35.839Z,21.50
2018-10-07T12:46:04.885Z,21.70
2018-10-07T12:48:33.798Z,21.70
2018-10-07T12:51:04.004Z,21.60
2018-10-07T12:53:33.147Z,21.40
2018-10-07T12:56:02.665Z,21.50
2018-10-07T12:58:31.929Z,21.50
2018-10-07T13:01:01.160Z,21.30
2018-10-07T13:03:30.104Z,21.40
2018-10-07T13:05:59.240Z,21.50
2018-10-07T13:08:29.217Z,21.50
2018-10-07T13:10:58.164Z,21.60
2018-10-07T13:13:27.210Z,21.40
2018-10-07T13:15:56.180Z,21.40
2018-10-07T13:18:25.154Z,21.50
2018-10-07T13:20:54.242Z,21.60
2018-10-07T13:23:23.275Z,21.60
2018-10-07T13:25:52.251Z,21.50
2018-10-07T13:28:21.372Z,21.40
2018-10-07T13:30:50.445Z,21.40
2018-10-07T13:33:19.348Z,21.30
2018-10-07T13:35:49.775Z,21.20
2018-10-07T13:38:18.713Z,21.30
2018-10-07T13:40:47.673Z,21.30
2018-10-07T13:43:16.639Z,21.20
2018-10-07T13:45:45.588Z,21.00
2018-10-07T13:48:14.594Z,21.10
2018-10-07T13:50:43.493Z,21.20
2018-10-07T13:53:12.357Z,21.40
2018-10-07T13:55:41.416Z,21.40
2018-10-07T13:58:14.361Z,21.10
2018-10-07T14:00:43.191Z,21.10
2018-10-07T14:03:12.188Z,21.20
2018-10-07T14:05:41.044Z,21.10
2018-10-07T14:08:09.995Z,21.10
2018-10-07T14:10:41.821Z,21.00
2018-10-07T14:13:10.808Z,20.90
2018-10-07T14:15:39.783Z,20.90
2018-10-07T14:18:08.796Z,20.90
2018-10-07T14:20:37.845Z,20.90
2018-10-07T14:23:06.984Z,21.00
2018-10-07T14:25:36.122Z,20.90
2018-10-07T14:28:04.920Z,20.90
2018-10-07T14:30:34.073Z,20.80
2018-10-07T14:33:03.006Z,20.80
2018-10-07T14:35:31.794Z,20.70
2018-10-07T14:38:00.713Z,20.60
2018-10-07T14:40:29.537Z,20.40
2018-10-07T14:42:58.488Z,20.50
2018-10-07T14:45:27.390Z,20.50
2018-10-07T14:47:56.278Z,20.30
2018-10-07T14:50:25.338Z,20.30
2018-10-07T14:52:54.463Z,20.30
2018-10-07T14:55:23.355Z,20.30
2018-10-07T14:57:52.201Z,20.30
2018-10-07T15:00:21.202Z,20.20
2018-10-07T15:02:50.012Z,20.20
2018-10-07T15:05:19.081Z,20.10
2018-10-07T15:07:48.222Z,20.10
2018-10-07T15:10:17.168Z,20.10
2018-10-07T15:12:46.013Z,20.10
2018-10-07T15:15:14.790Z,20.10
2018-10-07T15:17:43.662Z,20.00
2018-10-07T15:20:12.569Z,20.10
2018-10-07T15:22:41.532Z,20.30
2018-10-07T15:25:10.455Z,20.30
2018-10-07T15:27:39.365Z,20.30
2018-10-07T15:30:08.292Z,20.30
2018-10-07T15:32:37.173Z,20.20
2018-10-07T15:35:06.395Z,20.20
2018-10-07T15:37:35.529Z,20.10
2018-10-07T15:40:04.516Z,19.80
2018-10-07T15:42:33.458Z,20.00
2018-10-07T15:45:02.372Z,20.00
2018-10-07T15:47:34.739Z,20.00
2018-10-07T15:50:03.872Z,20.00
2018-10-07T15:52:32.920Z,20.00
2018-10-07T15:55:01.872Z,19.90
2018-10-07T15:57:30.759Z,19.90
2018-10-07T15:59:59.589Z,19.80
2018-10-07T16:02:28.860Z,19.60
2018-10-07T16:04:57.675Z,19.40
2018-10-07T16:07:26.864Z,19.60
2018-10-07T16:09:55.639Z,19.50
2018-10-07T16:12:24.574Z,19.50
2018-10-07T16:14:53.564Z,19.50
2018-10-07T16:17:22.555Z,19.40
2018-10-07T16:19:51.416Z,19.40
2018-10-07T16:22:20.273Z,19.40
2018-10-07T16:24:49.206Z,19.40
2018-10-07T16:27:18.117Z,19.40
2018-10-07T16:29:47.000Z,19.40
2018-10-07T16:32:16.740Z,19.40
2018-10-07T16:34:45.805Z,19.40
2018-10-07T16:37:14.760Z,19.40
2018-10-07T16:39:43.585Z,19.20
2018-10-07T16:42:12.626Z,19.20
2018-10-07T16:44:41.771Z,19.20
2018-10-07T16:47:10.618Z,19.30
2018-10-07T16:49:39.546Z,19.30
2018-10-07T16:52:08.650Z,19.10
2018-10-07T16:54:37.479Z,19.10
2018-10-07T16:57:06.397Z,19.10
2018-10-07T16:59:35.421Z,19.10
2018-10-07T17:02:04.341Z,19.00
2018-10-07T17:04:33.348Z,19.00
2018-10-07T17:07:02.209Z,18.80
2018-10-07T17:09:31.076Z,18.70
2018-10-07T17:12:00.091Z,18.90
2018-10-07T17:14:29.181Z,18.80
2018-10-07T17:16:58.029Z,18.80
2018-10-07T17:19:26.982Z,18.70
2018-10-07T17:21:55.808Z,18.60
2018-10-07T17:24:24.740Z,18.60
2018-10-07T17:26:53.733Z,18.70
2018-10-07T17:29:23.114Z,18.60
2018-10-07T17:31:51.926Z,18.50
2018-10-07T17:34:20.853Z,18.50
2018-10-07T17:36:49.842Z,18.50
2018-10-07T17:39:18.745Z,18.50
2018-10-07T17:41:51.729Z,18.60
2018-10-07T17:44:20.708Z,18.60
2018-10-07T17:46:49.665Z,18.60
2018-10-07T17:49:18.686Z,18.40
2018-10-07T17:51:47.513Z,18.20
2018-10-07T17:54:16.948Z,18.20
2018-10-07T17:56:45.800Z,18.30
2018-10-07T17:59:14.853Z,18.30
2018-10-07T18:01:43.846Z,18.20
2018-10-07T18:04:12.628Z,18.30
2018-10-07T18:06:41.450Z,18.10
2018-10-07T18:09:10.907Z,18.20
2018-10-07T18:11:40.273Z,18.20
2018-10-07T18:14:09.214Z,18.10
2018-10-07T18:16:38.098Z,18.10
2018-10-07T18:19:07.193Z,18.00
2018-10-07T18:21:36.111Z,17.90
2018-10-07T18:24:05.376Z,17.90
2018-10-07T18:26:34.263Z,17.90
2018-10-07T18:29:03.309Z,17.90
2018-10-07T18:31:32.256Z,17.70
2018-10-07T18:34:01.211Z,17.80
2018-10-07T18:36:30.081Z,17.80
2018-10-07T18:39:00.309Z,17.80
2018-10-07T18:41:29.558Z,17.80
2018-10-07T18:43:58.497Z,17.70
2018-10-07T18:46:27.399Z,17.50
2018-10-07T18:48:56.423Z,17.40
2018-10-07T18:51:25.221Z,17.30
2018-10-07T18:53:54.073Z,17.30
2018-10-07T18:56:23.079Z,17.30
2018-10-07T18:58:51.875Z,17.30
2018-10-07T19:01:20.693Z,17.20
2018-10-07T19:03:49.701Z,17.30
2018-10-07T19:06:18.932Z,17.30
2018-10-07T19:08:48.755Z,17.20
2018-10-07T19:11:17.666Z,17.00
2018-10-07T19:13:46.780Z,17.00
2018-10-07T19:16:15.608Z,17.00
2018-10-07T19:18:44.689Z,17.00
2018-10-07T19:21:13.597Z,16.90
2018-10-07T19:23:42.335Z,16.90
2018-10-07T19:26:11.178Z,16.90
2018-10-07T19:28:40.125Z,16.70
2018-10-07T19:31:08.961Z,16.90
2018-10-07T19:33:37.752Z,16.90
2018-10-07T19:36:06.886Z,16.90
2018-10-07T19:38:35.691Z,16.80
2018-10-07T19:41:04.584Z,16.80
2018-10-07T19:43:33.566Z,16.90
2018-10-07T19:46:02.444Z,16.80
2018-10-07T19:48:31.275Z,16.80
2018-10-07T19:51:00.230Z,16.90
2018-10-07T19:53:29.255Z,16.90
2018-10-07T19:55:58.268Z,16.90
2018-10-07T19:58:27.122Z,16.90
2018-10-07T20:00:56.333Z,16.90
2018-10-07T20:03:25.322Z,16.80
2018-10-07T20:05:54.164Z,16.90
2018-10-07T20:08:22.971Z,16.70
2018-10-07T20:10:51.763Z,16.70
2018-10-07T20:13:20.583Z,16.80
2018-10-07T20:15:49.553Z,16.70
2018-10-07T20:18:18.438Z,16.80
2018-10-07T20:20:47.248Z,16.70
2018-10-07T20:23:16.195Z,16.70
2018-10-07T20:25:45.171Z,16.60
2018-10-07T20:28:13.958Z,16.60
2018-10-07T20:30:42.877Z,16.50
2018-10-07T20:33:11.632Z,16.60
2018-10-07T20:35:40.476Z,16.50
2018-10-07T20:38:09.485Z,16.50
2018-10-07T20:40:38.468Z,16.60
2018-10-07T20:43:07.408Z,16.60
2018-10-07T20:45:36.297Z,16.50
2018-10-07T20:48:05.186Z,16.40
2018-10-07T20:50:34.099Z,16.50
2018-10-07T20:53:02.942Z,16.50
2018-10-07T20:55:31.856Z,16.50
2018-10-07T20:58:00.744Z,16.50
2018-10-07T21:00:29.678Z,16.40
2018-10-07T21:02:58.496Z,16.30
2018-10-07T21:05:27.471Z,16.30
2018-10-07T21:07:56.425Z,16.10
2018-10-07T21:10:25.394Z,16.20
2018-10-07T21:12:54.244Z,16.30
2018-10-07T21:15:23.154Z,16.40
2018-10-07T21:17:51.965Z,16.30
2018-10-07T21:20:20.806Z,16.30
2018-10-07T21:22:49.884Z,16.20
2018-10-07T21:25:18.706Z,16.30
2018-10-07T21:27:47.753Z,16.20
2018-10-07T21:30:16.846Z,16.10
2018-10-07T21:32:45.708Z,16.10
2018-10-07T21:35:14.564Z,15.90
2018-10-07T21:37:43.417Z,15.80
2018-10-07T21:40:12.370Z,15.70
2018-10-07T21:42:41.201Z,15.80
2018-10-07T21:45:10.579Z,15.70
2018-10-07T21:47:39.455Z,15.80
2018-10-07T21:50:08.477Z,15.70
2018-10-07T21:52:37.385Z,15.70
2018-10-07T21:55:06.436Z,15.50
2018-10-07T21:57:35.144Z,15.50
2018-10-07T22:00:04.360Z,15.50
2018-10-07T22:02:33.213Z,15.50
2018-10-07T22:05:02.385Z,15.50
2018-10-07T22:07:31.182Z,15.40
2018-10-07T22:10:00.004Z,15.40
2018-10-07T22:12:29.108Z,15.30
2018-10-07T22:14:57.978Z,15.30
2018-10-07T22:17:26.956Z,15.40
2018-10-07T22:19:55.833Z,15.40
2018-10-07T22:22:24.636Z,15.50
2018-10-07T22:24:53.624Z,15.60
2018-10-07T22:27:22.479Z,15.50
2018-10-07T22:29:51.225Z,15.50
2018-10-07T22:32:20.046Z,15.30
2018-10-07T22:34:48.952Z,15.30
2018-10-07T22:37:17.879Z,15.10
2018-10-07T22:39:46.613Z,15.00
2018-10-07T22:42:15.389Z,15.10
2018-10-07T22:44:44.179Z,15.10
2018-10-07T22:47:12.981Z,15.20
2018-10-07T22:49:41.841Z,15.30
2018-10-07T22:52:10.659Z,15.20
2018-10-07T22:54:39.542Z,15.00
2018-10-07T22:57:08.285Z,14.90
2018-10-07T22:59:38.189Z,14.90
2018-10-07T23:02:07.501Z,14.80
2018-10-07T23:04:36.503Z,14.90
2018-10-07T23:07:05.542Z,14.70
2018-10-07T23:09:34.451Z,14.70
2018-10-07T23:12:03.273Z,14.60
2018-10-07T23:14:32.288Z,14.60
2018-10-07T23:17:01.152Z,14.50
2018-10-07T23:19:29.981Z,14.50
2018-10-07T23:21:58.841Z,14.60
2018-10-07T23:24:27.779Z,14.70
2018-10-07T23:26:56.877Z,14.70
2018-10-07T23:29:25.723Z,14.70
2018-10-07T23:31:54.595Z,14.70
2018-10-07T23:34:23.450Z,14.50
2018-10-07T23:36:52.398Z,14.60
2018-10-07T23:39:21.205Z,14.50
2018-10-07T23:41:56.278Z,14.70
2018-10-07T23:44:25.129Z,14.60
2018-10-07T23:46:53.916Z,14.30
2018-10-07T23:49:22.847Z,14.20
2018-10-07T23:51:51.778Z,14.30
2018-10-07T23:54:20.556Z,14.00
2018-10-07T23:56:49.319Z,13.80
2018-10-07T23:59:19.146Z,13.80
